createdAt,value
2018-11-10T00:00:24.098Z,99.90
2018-11-10T00:02:52.819Z,99.90
2018-11-10T00:05:21.685Z,99.90
2018-11-10T00:07:49.633Z,99.90
2018-11-10T00:10:18.217Z,99.90
2018-11-10T00:12:46.596Z,99.90
2018-11-10T00:15:15.455Z,99.90
2018-11-10T00:17:43.390Z,99.90
2018-11-10T00:20:12.537Z,99.90
2018-11-10T00:22:41.512Z,99.90
2018-11-10T00:25:11.549Z,99.90
2018-11-10T00:27:40.280Z,99.90
2018-11-10T00:30:10.438Z,99.90
2018-11-10T00:32:38.283Z,99.90
2018-11-10T00:35:06.494Z,99.90
2018-11-10T00:37:34.452Z,99.90
2018-11-10T00:40:02.561Z,99.90
2018-11-10T00:42:30.560Z,99.90
2018-11-10T00:44:58.446Z,99.90
2018-11-10T00:47:26.608Z,99.90
2018-11-10T00:49:54.620Z,99.90
2018-11-10T00:52:22.690Z,99.90
2018-11-10T00:54:50.586Z,99.90
2018-11-10T00:57:18.747Z,99.90
2018-11-10T00:59:46.821Z,99.90
2018-11-10T01:02:14.816Z,99.90
2018-11-10T01:04:42.875Z,99.90
2018-11-10T01:07:10.986Z,99.90
2018-11-10T01:09:39.662Z,99.90
2018-11-10T01:12:07.565Z,99.90
2018-11-10T01:14:35.690Z,99.90
2018-11-10T01:17:03.693Z,99.90
2018-11-10T01:19:31.753Z,99.90
2018-11-10T01:21:59.852Z,99.90
2018-11-10T01:24:27.826Z,99.90
2018-11-10T01:26:55.740Z,99.90
2018-11-10T01:29:23.635Z,99.90
2018-11-10T01:31:51.622Z,99.90
2018-11-10T01:34:19.738Z,99.90
2018-11-10T01:36:47.747Z,99.90
2018-11-10T01:39:15.727Z,99.90
2018-11-10T01:41:43.647Z,99.90
2018-11-10T01:44:11.586Z,99.90
2018-11-10T01:46:39.560Z,99.90
2018-11-10T01:49:07.797Z,99.90
2018-11-10T01:51:35.603Z,99.90
2018-11-10T01:54:03.486Z,99.90
2018-11-10T01:56:31.433Z,99.90
2018-11-10T01:58:59.339Z,99.90
2018-11-10T02:01:27.266Z,99.90
2018-11-10T02:03:55.488Z,99.90
2018-11-10T02:06:23.359Z,99.90
2018-11-10T02:08:51.231Z,99.90
2018-11-10T02:11:19.503Z,99.90
2018-11-10T02:13:47.360Z,99.90
2018-11-10T02:16:15.274Z,99.90
2018-11-10T02:18:43.276Z,99.90
2018-11-10T02:21:11.316Z,99.90
2018-11-10T02:23:39.312Z,99.90
2018-11-10T02:26:07.460Z,99.90
2018-11-10T02:28:35.438Z,99.90
2018-11-10T02:31:04.268Z,99.90
2018-11-10T02:33:32.454Z,99.90
2018-11-10T02:36:00.322Z,99.90
2018-11-10T02:38:28.308Z,99.90
2018-11-10T02:40:56.282Z,99.90
2018-11-10T02:43:24.083Z,99.90
2018-11-10T02:45:51.962Z,99.90
2018-11-10T02:48:19.820Z,99.90
2018-11-10T02:50:48.868Z,99.90
2018-11-10T02:53:16.689Z,99.90
2018-11-10T02:55:44.536Z,99.90
2018-11-10T02:58:12.672Z,99.90
2018-11-10T03:00:40.498Z,99.90
2018-11-10T03:03:08.433Z,99.90
2018-11-10T03:05:36.372Z,99.90
2018-11-10T03:08:05.021Z,99.90
2018-11-10T03:10:32.882Z,99.90
2018-11-10T03:13:00.686Z,99.90
2018-11-10T03:15:28.591Z,99.90
2018-11-10T03:17:56.553Z,99.90
2018-11-10T03:20:24.462Z,99.90
2018-11-10T03:22:52.358Z,99.90
2018-11-10T03:25:20.436Z,99.90
2018-11-10T03:27:48.318Z,99.90
2018-11-10T03:30:16.076Z,99.90
2018-11-10T03:32:43.959Z,99.90
2018-11-10T03:35:11.920Z,99.90
2018-11-10T03:37:40.225Z,99.90
2018-11-10T03:40:09.518Z,99.90
2018-11-10T03:42:38.224Z,99.90
2018-11-10T03:45:07.058Z,99.90
2018-11-10T03:47:34.758Z,99.90
2018-11-10T03:50:02.705Z,99.90
2018-11-10T03:52:30.670Z,99.90
2018-11-10T03:54:58.503Z,99.90
2018-11-10T03:57:26.578Z,99.90
2018-11-10T03:59:54.412Z,99.90
2018-11-10T04:02:22.313Z,99.90
2018-11-10T04:04:50.116Z,99.90
2018-11-10T04:07:18.096Z,99.90
2018-11-10T04:09:46.084Z,99.90
2018-11-10T04:12:14.121Z,99.90
2018-11-10T04:14:42.066Z,99.90
2018-11-10T04:17:09.942Z,99.90
2018-11-10T04:19:37.680Z,99.90
2018-11-10T04:22:06.227Z,99.90
2018-11-10T04:24:34.382Z,99.90
2018-11-10T04:27:02.478Z,99.90
2018-11-10T04:29:30.521Z,99.90
2018-11-10T04:31:58.502Z,99.90
2018-11-10T04:34:26.398Z,99.90
2018-11-10T04:36:54.466Z,99.90
2018-11-10T04:39:22.400Z,99.90
2018-11-10T04:41:50.226Z,99.90
2018-11-10T04:44:18.204Z,99.90
2018-11-10T04:46:46.197Z,99.90
2018-11-10T04:49:14.060Z,99.90
2018-11-10T04:51:42.943Z,99.90
2018-11-10T04:54:10.753Z,99.90
2018-11-10T04:56:38.774Z,99.90
2018-11-10T04:59:07.204Z,99.90
2018-11-10T05:01:35.322Z,99.90
2018-11-10T05:04:03.216Z,99.90
2018-11-10T05:06:31.030Z,99.90
2018-11-10T05:08:58.968Z,99.90
2018-11-10T05:11:26.899Z,99.90
2018-11-10T05:13:54.738Z,99.90
2018-11-10T05:16:22.549Z,99.90
2018-11-10T05:18:50.485Z,99.90
2018-11-10T05:21:18.561Z,99.90
2018-11-10T05:23:46.514Z,99.90
2018-11-10T05:26:14.704Z,99.90
2018-11-10T05:28:42.859Z,99.90
2018-11-10T05:31:11.023Z,99.90
2018-11-10T05:33:38.790Z,99.90
2018-11-10T05:36:06.915Z,99.90
2018-11-10T05:38:35.021Z,99.90
2018-11-10T05:41:02.900Z,99.90
2018-11-10T05:43:30.957Z,99.90
2018-11-10T05:45:58.787Z,99.90
2018-11-10T05:48:27.000Z,99.90
2018-11-10T05:50:55.028Z,99.90
2018-11-10T05:53:23.259Z,99.90
2018-11-10T05:55:51.191Z,99.90
2018-11-10T05:58:19.583Z,99.90
2018-11-10T06:00:47.578Z,99.90
2018-11-10T06:03:15.522Z,99.90
2018-11-10T06:05:43.438Z,99.90
2018-11-10T06:08:11.860Z,99.90
2018-11-10T06:10:39.834Z,99.90
2018-11-10T06:13:07.674Z,99.90
2018-11-10T06:15:35.781Z,99.90
2018-11-10T06:18:03.750Z,99.90
2018-11-10T06:20:31.931Z,99.90
2018-11-10T06:23:00.381Z,99.90
2018-11-10T06:25:28.469Z,99.90
2018-11-10T06:27:56.428Z,99.90
2018-11-10T06:30:24.465Z,99.90
2018-11-10T06:32:52.573Z,99.90
2018-11-10T06:35:20.842Z,99.90
2018-11-10T06:37:48.781Z,99.90
2018-11-10T06:40:16.657Z,99.90
2018-11-10T06:42:44.740Z,99.90
2018-11-10T06:45:12.565Z,99.90
2018-11-10T06:47:40.814Z,99.90
2018-11-10T06:50:10.239Z,99.90
2018-11-10T06:52:38.288Z,99.90
2018-11-10T06:55:07.394Z,99.90
2018-11-10T06:57:35.274Z,99.90
2018-11-10T07:00:03.654Z,99.90
2018-11-10T07:02:31.849Z,99.90
2018-11-10T07:04:59.940Z,99.90
2018-11-10T07:07:27.944Z,99.90
2018-11-10T07:09:56.107Z,99.90
2018-11-10T07:12:24.092Z,99.90
2018-11-10T07:14:52.066Z,99.90
2018-11-10T07:17:20.126Z,99.90
2018-11-10T07:19:48.143Z,99.90
2018-11-10T07:22:16.017Z,99.90
2018-11-10T07:24:43.919Z,99.90
2018-11-10T07:27:11.740Z,99.90
2018-11-10T07:29:40.065Z,99.90
2018-11-10T07:32:08.091Z,99.90
2018-11-10T07:34:36.117Z,99.90
2018-11-10T07:37:04.721Z,99.90
2018-11-10T07:39:32.645Z,99.90
2018-11-10T07:42:00.986Z,99.90
2018-11-10T07:44:29.776Z,99.90
2018-11-10T07:46:57.587Z,99.90
2018-11-10T07:49:25.491Z,99.90
2018-11-10T07:51:53.389Z,99.90
2018-11-10T07:54:21.403Z,99.90
2018-11-10T07:56:49.403Z,99.90
2018-11-10T07:59:17.942Z,99.40
2018-11-10T08:01:45.822Z,98.70
2018-11-10T08:04:13.726Z,97.90
2018-11-10T08:06:41.516Z,97.60
2018-11-10T08:09:10.226Z,96.90
2018-11-10T08:11:38.398Z,95.10
2018-11-10T08:14:06.588Z,94.90
2018-11-10T08:16:34.730Z,93.40
2018-11-10T08:19:02.751Z,92.30
2018-11-10T08:21:30.738Z,92.40
2018-11-10T08:24:00.544Z,92.40
2018-11-10T08:26:29.583Z,93.10
2018-11-10T08:28:57.641Z,93.20
2018-11-10T08:31:25.662Z,93.50
2018-11-10T08:33:53.905Z,92.30
2018-11-10T08:36:21.769Z,92.50
2018-11-10T08:38:49.715Z,91.40
2018-11-10T08:41:17.864Z,91.70
2018-11-10T08:43:46.814Z,91.60
2018-11-10T08:46:14.737Z,92.20
2018-11-10T08:48:43.066Z,92.20
2018-11-10T08:51:11.244Z,92.70
2018-11-10T08:53:39.136Z,92.90
2018-11-10T08:56:07.529Z,93.30
2018-11-10T08:58:35.364Z,92.80
2018-11-10T09:01:03.250Z,92.60
2018-11-10T09:03:31.546Z,92.70
2018-11-10T09:05:59.519Z,92.70
2018-11-10T09:08:27.482Z,92.20
2018-11-10T09:10:55.423Z,91.40
2018-11-10T09:13:25.771Z,91.70
2018-11-10T09:15:53.662Z,92.00
2018-11-10T09:18:21.583Z,91.50
2018-11-10T09:20:49.506Z,92.10
2018-11-10T09:23:17.374Z,92.20
2018-11-10T09:25:45.357Z,91.20
2018-11-10T09:28:13.790Z,90.70
2018-11-10T09:30:41.638Z,91.00
2018-11-10T09:33:09.504Z,90.40
2018-11-10T09:35:37.996Z,89.80
2018-11-10T09:38:06.547Z,87.10
2018-11-10T09:40:34.965Z,86.00
2018-11-10T09:43:02.922Z,85.20
2018-11-10T09:45:31.328Z,85.70
2018-11-10T09:48:00.604Z,86.60
2018-11-10T09:50:28.950Z,86.60
2018-11-10T09:53:04.756Z,87.20
2018-11-10T09:55:32.890Z,87.10
2018-11-10T09:58:00.640Z,86.50
2018-11-10T10:00:28.853Z,82.40
2018-11-10T10:02:59.189Z,82.60
2018-11-10T10:05:27.043Z,83.40
2018-11-10T10:07:55.209Z,84.40
2018-11-10T10:10:23.280Z,84.00
2018-11-10T10:12:51.282Z,85.00
2018-11-10T10:15:19.591Z,85.10
2018-11-10T10:18:01.244Z,85.90
2018-11-10T10:20:29.225Z,86.40
2018-11-10T10:22:59.863Z,85.00
2018-11-10T10:25:28.356Z,84.50
2018-11-10T10:27:56.467Z,83.60
2018-11-10T10:30:25.783Z,82.40
2018-11-10T10:32:54.222Z,82.90
2018-11-10T10:35:22.496Z,83.00
2018-11-10T10:37:51.525Z,82.80
2018-11-10T10:40:19.688Z,80.10
2018-11-10T10:42:48.406Z,80.30
2018-11-10T10:45:23.619Z,79.30
2018-11-10T10:47:51.799Z,78.20
2018-11-10T10:50:22.116Z,78.70
2018-11-10T10:52:50.355Z,77.90
2018-11-10T10:55:18.963Z,77.80
2018-11-10T10:57:48.119Z,76.70
2018-11-10T11:00:21.838Z,76.70
2018-11-10T11:02:56.740Z,76.80
2018-11-10T11:05:30.039Z,76.20
2018-11-10T11:07:58.560Z,75.20
2018-11-10T11:10:29.920Z,74.20
2018-11-10T11:13:02.649Z,73.80
2018-11-10T11:15:30.915Z,73.40
2018-11-10T11:17:58.861Z,72.30
2018-11-10T11:20:26.908Z,73.20
2018-11-10T11:22:54.800Z,71.80
2018-11-10T11:25:22.718Z,70.50
2018-11-10T11:27:50.965Z,70.00
2018-11-10T11:30:19.091Z,69.60
2018-11-10T11:32:47.781Z,69.60
2018-11-10T11:35:18.007Z,68.70
2018-11-10T11:37:46.560Z,69.50
2018-11-10T11:40:14.743Z,69.60
2018-11-10T11:42:43.606Z,69.80
2018-11-10T11:45:12.527Z,70.60
2018-11-10T11:47:41.342Z,69.40
2018-11-10T11:50:11.642Z,70.00
2018-11-10T11:52:43.027Z,69.40
2018-11-10T11:55:11.918Z,69.10
2018-11-10T11:57:40.627Z,68.40
2018-11-10T12:00:10.946Z,69.60
2018-11-10T12:02:39.448Z,69.80
2018-11-10T12:05:09.014Z,69.60
2018-11-10T12:07:36.896Z,68.40
2018-11-10T12:10:05.670Z,68.90
2018-11-10T12:12:33.604Z,68.20
2018-11-10T12:15:01.817Z,67.40
2018-11-10T12:17:29.783Z,67.10
2018-11-10T12:19:57.640Z,66.30
2018-11-10T12:22:25.652Z,66.20
2018-11-10T12:24:53.670Z,66.10
2018-11-10T12:27:21.601Z,66.70
2018-11-10T12:29:49.489Z,66.60
2018-11-10T12:32:17.482Z,66.20
2018-11-10T12:34:45.482Z,66.50
2018-11-10T12:37:13.445Z,66.20
2018-11-10T12:39:41.391Z,65.90
2018-11-10T12:42:09.301Z,66.20
2018-11-10T12:44:37.114Z,66.70
2018-11-10T12:47:05.474Z,66.70
2018-11-10T12:49:33.312Z,66.00
2018-11-10T12:52:01.617Z,65.70
2018-11-10T12:54:29.530Z,65.40
2018-11-10T12:56:57.519Z,66.20
2018-11-10T12:59:25.374Z,66.70
2018-11-10T13:01:53.442Z,66.40
2018-11-10T13:04:21.374Z,66.30
2018-11-10T13:06:49.280Z,65.60
2018-11-10T13:09:17.345Z,66.00
2018-11-10T13:11:45.338Z,66.20
2018-11-10T13:14:13.107Z,65.60
2018-11-10T13:16:41.030Z,64.90
2018-11-10T13:19:09.895Z,64.50
2018-11-10T13:21:38.502Z,65.00
2018-11-10T13:24:06.829Z,66.00
2018-11-10T13:26:34.635Z,66.60
2018-11-10T13:29:03.483Z,66.80
2018-11-10T13:31:31.401Z,67.30
2018-11-10T13:33:59.766Z,67.80
2018-11-10T13:36:27.895Z,68.10
2018-11-10T13:38:55.870Z,67.60
2018-11-10T13:41:23.783Z,67.70
2018-11-10T13:43:51.897Z,67.30
2018-11-10T13:46:20.137Z,67.70
2018-11-10T13:48:48.103Z,67.90
2018-11-10T13:51:16.443Z,68.10
2018-11-10T13:53:44.038Z,68.80
2018-11-10T13:56:12.941Z,69.40
2018-11-10T13:58:40.837Z,69.80
2018-11-10T14:01:11.653Z,70.00
2018-11-10T14:03:39.635Z,70.30
2018-11-10T14:06:07.561Z,70.50
2018-11-10T14:08:35.480Z,71.40
2018-11-10T14:11:03.614Z,72.20
2018-11-10T14:13:31.709Z,73.80
2018-11-10T14:15:59.702Z,74.70
2018-11-10T14:18:27.716Z,74.60
2018-11-10T14:20:55.639Z,74.90
2018-11-10T14:23:23.501Z,75.40
2018-11-10T14:25:51.379Z,75.20
2018-11-10T14:28:19.250Z,76.00
2018-11-10T14:30:47.119Z,76.40
2018-11-10T14:33:15.046Z,77.10
2018-11-10T14:35:43.062Z,77.80
2018-11-10T14:38:10.880Z,79.20
2018-11-10T14:40:38.758Z,80.90
2018-11-10T14:43:06.898Z,82.50
2018-11-10T14:45:34.848Z,84.70
2018-11-10T14:48:02.794Z,85.70
2018-11-10T14:50:30.626Z,87.40
2018-11-10T14:52:58.812Z,89.00
2018-11-10T14:55:26.678Z,89.30
2018-11-10T14:57:54.554Z,90.20
2018-11-10T15:00:28.827Z,90.60
2018-11-10T15:02:56.665Z,91.20
2018-11-10T15:05:25.153Z,91.80
2018-11-10T15:07:53.106Z,92.40
2018-11-10T15:10:21.058Z,93.00
2018-11-10T15:12:48.969Z,93.90
2018-11-10T15:15:17.928Z,94.40
2018-11-10T15:17:46.251Z,95.10
2018-11-10T15:20:15.324Z,95.30
2018-11-10T15:22:43.468Z,96.40
2018-11-10T15:25:13.162Z,97.00
2018-11-10T15:27:41.229Z,97.00
2018-11-10T15:30:11.765Z,97.80
2018-11-10T15:32:40.165Z,98.20
2018-11-10T15:35:09.686Z,98.30
2018-11-10T15:37:37.703Z,98.60
2018-11-10T15:40:06.935Z,99.10
2018-11-10T15:42:35.006Z,99.00
2018-11-10T15:45:03.173Z,99.40
2018-11-10T15:47:31.195Z,99.90
2018-11-10T15:49:58.932Z,99.90
2018-11-10T15:52:26.769Z,99.90
2018-11-10T15:54:54.623Z,99.90
2018-11-10T15:57:23.255Z,99.90
2018-11-10T15:59:51.054Z,99.90
2018-11-10T16:02:18.984Z,99.90
2018-11-10T16:04:46.972Z,99.90
2018-11-10T16:07:14.957Z,99.90
2018-11-10T16:09:42.996Z,99.90
2018-11-10T16:12:11.164Z,99.90
2018-11-10T16:14:39.048Z,99.90
2018-11-10T16:17:06.898Z,99.90
2018-11-10T16:19:34.973Z,99.90
2018-11-10T16:22:02.792Z,99.90
2018-11-10T16:24:30.738Z,99.90
2018-11-10T16:26:59.430Z,99.90
2018-11-10T16:29:27.329Z,99.90
2018-11-10T16:31:55.156Z,99.90
2018-11-10T16:34:23.082Z,99.90
2018-11-10T16:36:51.116Z,99.90
2018-11-10T16:39:19.082Z,99.90
2018-11-10T16:41:47.001Z,99.90
2018-11-10T16:44:14.892Z,99.90
2018-11-10T16:46:42.841Z,99.90
2018-11-10T16:49:10.722Z,99.90
2018-11-10T16:51:38.741Z,99.90
2018-11-10T16:54:06.575Z,99.90
2018-11-10T16:56:34.552Z,99.90
2018-11-10T16:59:02.700Z,99.90
2018-11-10T17:01:30.646Z,99.90
2018-11-10T17:03:58.534Z,99.90
2018-11-10T17:06:26.189Z,99.90
2018-11-10T17:08:53.959Z,99.90
2018-11-10T17:11:21.563Z,99.90
2018-11-10T17:13:49.253Z,99.90
2018-11-10T17:16:16.880Z,99.90
2018-11-10T17:18:44.909Z,99.90
2018-11-10T17:21:12.490Z,99.90
2018-11-10T17:23:40.193Z,99.90
2018-11-10T17:26:07.806Z,99.90
2018-11-10T17:28:35.394Z,99.90
2018-11-10T17:31:02.913Z,99.90
2018-11-10T17:33:31.106Z,99.90
2018-11-10T17:35:58.617Z,99.90
2018-11-10T17:38:26.224Z,99.90
2018-11-10T17:40:53.896Z,99.90
2018-11-10T17:43:21.577Z,99.90
2018-11-10T17:45:49.117Z,99.90
2018-11-10T17:48:16.738Z,99.90
2018-11-10T17:50:45.058Z,99.90
2018-11-10T17:53:13.095Z,99.90
2018-11-10T17:55:41.286Z,99.90
2018-11-10T17:58:09.412Z,99.90
2018-11-10T18:00:37.416Z,99.90
2018-11-10T18:03:05.666Z,99.90
2018-11-10T18:05:33.763Z,99.90
2018-11-10T18:08:02.345Z,99.90
2018-11-10T18:10:32.434Z,99.90
2018-11-10T18:13:01.383Z,99.90
2018-11-10T18:15:30.261Z,99.90
2018-11-10T18:17:58.590Z,99.90
2018-11-10T18:20:28.916Z,99.90
2018-11-10T18:22:59.174Z,99.90
2018-11-10T18:25:27.414Z,99.90
2018-11-10T18:27:55.709Z,99.90
2018-11-10T18:30:24.160Z,99.90
2018-11-10T18:32:52.722Z,99.90
2018-11-10T18:35:20.804Z,99.90
2018-11-10T18:37:48.804Z,99.90
2018-11-10T18:40:16.739Z,99.90
2018-11-10T18:42:44.714Z,99.90
2018-11-10T18:45:13.232Z,99.90
2018-11-10T18:47:41.860Z,99.90
2018-11-10T18:50:12.241Z,99.90
2018-11-10T18:52:40.516Z,99.90
2018-11-10T18:55:08.680Z,99.90
2018-11-10T18:57:36.866Z,99.90
2018-11-10T19:00:05.986Z,99.90
2018-11-10T19:02:34.248Z,99.90
2018-11-10T19:05:02.244Z,99.90
2018-11-10T19:07:30.315Z,99.90
2018-11-10T19:09:58.311Z,99.90
2018-11-10T19:12:26.304Z,99.90
2018-11-10T19:14:54.536Z,99.90
2018-11-10T19:17:22.674Z,99.90
2018-11-10T19:19:50.644Z,99.90
2018-11-10T19:22:18.714Z,99.90
2018-11-10T19:24:46.671Z,99.90
2018-11-10T19:27:15.008Z,99.90
2018-11-10T19:29:43.172Z,99.90
2018-11-10T19:32:11.125Z,99.90
2018-11-10T19:34:39.061Z,99.90
2018-11-10T19:37:07.202Z,99.90
2018-11-10T19:39:35.389Z,99.90
2018-11-10T19:42:03.436Z,99.90
2018-11-10T19:44:32.522Z,99.90
2018-11-10T19:47:03.032Z,99.90
2018-11-10T19:49:32.036Z,99.90
2018-11-10T19:52:02.140Z,99.90
2018-11-10T19:54:30.905Z,99.90
2018-11-10T19:56:59.816Z,99.90
2018-11-10T19:59:28.656Z,99.90
2018-11-10T20:01:59.527Z,99.90
2018-11-10T20:04:31.333Z,99.90
2018-11-10T20:07:07.497Z,99.90
2018-11-10T20:09:37.508Z,99.90
2018-11-10T20:12:07.009Z,99.90
2018-11-10T20:14:41.081Z,99.90
2018-11-10T20:17:09.174Z,99.90
2018-11-10T20:20:10.598Z,99.90
2018-11-10T20:22:39.079Z,99.90
2018-11-10T20:25:08.892Z,99.90
2018-11-10T20:27:37.158Z,99.90
2018-11-10T20:30:07.856Z,99.90
2018-11-10T20:32:36.046Z,99.90
2018-11-10T20:35:07.470Z,99.90
2018-11-10T20:37:35.449Z,99.90
2018-11-10T20:40:03.999Z,99.90
2018-11-10T20:42:31.951Z,99.90
2018-11-10T20:45:00.086Z,99.90
2018-11-10T20:47:28.075Z,99.90
2018-11-10T20:49:56.458Z,99.90
2018-11-10T20:52:24.548Z,99.90
2018-11-10T20:54:54.106Z,99.90
2018-11-10T20:57:22.273Z,99.90
2018-11-10T20:59:52.324Z,99.90
2018-11-10T21:02:20.867Z,99.90
2018-11-10T21:04:48.914Z,99.90
2018-11-10T21:07:17.211Z,99.90
2018-11-10T21:09:45.271Z,99.90
2018-11-10T21:12:13.432Z,99.90
2018-11-10T21:14:41.478Z,99.90
2018-11-10T21:17:09.591Z,99.90
2018-11-10T21:19:37.583Z,99.90
2018-11-10T21:22:09.331Z,99.90
2018-11-10T21:24:37.391Z,99.90
2018-11-10T21:27:05.815Z,99.90
2018-11-10T21:29:33.825Z,99.90
2018-11-10T21:32:02.057Z,99.90
2018-11-10T21:34:30.320Z,99.90
2018-11-10T21:36:58.991Z,99.90
2018-11-10T21:39:27.331Z,99.90
2018-11-10T21:41:56.076Z,99.90
2018-11-10T21:44:24.306Z,99.90
2018-11-10T21:46:52.114Z,99.90
2018-11-10T21:49:20.899Z,99.90
2018-11-10T21:51:49.598Z,99.90
2018-11-10T21:54:17.701Z,99.90
2018-11-10T21:56:46.333Z,99.90
2018-11-10T21:59:14.212Z,99.90
2018-11-10T22:01:42.113Z,99.90
2018-11-10T22:04:09.982Z,99.90
2018-11-10T22:06:38.045Z,99.90
2018-11-10T22:09:08.298Z,99.90
2018-11-10T22:11:36.125Z,99.90
2018-11-10T22:14:04.341Z,99.90
2018-11-10T22:16:32.234Z,99.90
2018-11-10T22:19:00.217Z,99.90
2018-11-10T22:21:28.459Z,99.90
2018-11-10T22:23:56.393Z,99.90
2018-11-10T22:26:24.575Z,99.90
2018-11-10T22:28:52.748Z,99.90
2018-11-10T22:31:20.817Z,99.90
2018-11-10T22:33:48.692Z,99.90
2018-11-10T22:36:16.713Z,99.90
2018-11-10T22:38:44.937Z,99.90
2018-11-10T22:41:12.946Z,99.90
2018-11-10T22:43:41.366Z,99.90
2018-11-10T22:46:09.693Z,99.90
2018-11-10T22:48:38.151Z,99.90
2018-11-10T22:51:06.237Z,99.90
2018-11-10T22:53:34.085Z,99.90
2018-11-10T22:56:02.159Z,99.90
2018-11-10T22:58:30.215Z,99.90
2018-11-10T23:01:07.095Z,99.90
2018-11-10T23:03:36.046Z,99.90
2018-11-10T23:06:03.990Z,99.90
2018-11-10T23:08:32.076Z,99.90
2018-11-10T23:11:00.036Z,99.90
2018-11-10T23:13:27.980Z,99.90
2018-11-10T23:15:56.044Z,99.90
2018-11-10T23:18:23.990Z,99.90
2018-11-10T23:20:51.995Z,99.90
2018-11-10T23:23:19.949Z,99.90
2018-11-10T23:25:47.852Z,99.90
2018-11-10T23:28:15.756Z,99.90
2018-11-10T23:30:44.284Z,99.90
2018-11-10T23:33:12.938Z,99.90
2018-11-10T23:35:41.937Z,99.90
2018-11-10T23:38:10.157Z,99.90
2018-11-10T23:40:37.989Z,99.90
2018-11-10T23:43:05.910Z,99.90
2018-11-10T23:45:33.879Z,99.90
2018-11-10T23:48:15.395Z,99.90
2018-11-10T23:50:44.355Z,99.90
2018-11-10T23:53:13.644Z,99.90
2018-11-10T23:55:43.298Z,99.90
2018-11-10T23:58:12.160Z,99.90
